Ana Sayfa
METAR-TAF:

METAR-TAF

Havaalanları :

Bacău, Romanya

Enlem: 46-35N, Boylam: 026-58E, yükseklik: 184 m

Güncel hava durumu gözlemi

Rapor saat 19:30 UTC de 35 dakika önce yapıldı.
Rüzgar batıdan 11 kt
Sıcaklık 12°C
Nem 38%
Basınç 1012 hPa
Görüş mesafesi 10 km veya daha fazla
1500 m altında bulut yok ve kümülonimbus yok

METAR: LRBC 031930Z 26011KT CAVOK 12/M02 Q1012

Saat: 23:05 (20:05 UTC)

Tahmin

Rapor saat 17:00 UTC de 3 saat ve 5 dakika önce yapıldı.
Ayın 03'si saat 18 UTC'den ayın 04'si saat 03 UTC'ye kadar geçerli Tahmin
Rüzgar değişken yönden 4 kt
Görüş mesafesi 10 km veya daha fazla
1500 m altında bulut yok ve kümülonimbus yok
Geçici
ayın 04'si saat 00 UTC'den ayın 04'si saat 03 UTC'ye kadar
Rüzgar kuzeydan 10 kt

TAF: LRBC 031700Z 0318/0403 VRB04KT CAVOK TEMPO 0400/0403 35010KT

4.000'den fazla havaalanı için hava durumu gözlemleri ve tahminleri (METAR ve TAF raporları).

Kullanılabilir istasyonlar harita üzerinde sarı ve kırmızı noktalarla gösterilir.

İstasyonun adını görmek için fareyi noktanın üzerinde gezdirin.

Sonrasında hava gözlem ve tahminlerini görmek için tıklayın.

Haritayı değiştirmek için: yaklaştırmak için siyah artı işaretli yeşil düğmeye ve uzaklaştırmak için de eksi işaretli düğmeye hızla tıklayın; bitişik haritalar için yeşil okları kullanın.


METAR-TAF: